createdAt,value
2017-09-06T00:00:26.887Z,1010.61
2017-09-06T00:01:35.861Z,1010.54
2017-09-06T00:02:44.833Z,1010.5
2017-09-06T00:03:55.065Z,1010.49
2017-09-06T00:05:03.723Z,1010.48
2017-09-06T00:06:12.710Z,1010.5
2017-09-06T00:07:21.374Z,1010.53
2017-09-06T00:08:30.340Z,1010.5
2017-09-06T00:09:39.939Z,1010.51
2017-09-06T00:10:48.911Z,1010.53
2017-09-06T00:11:58.205Z,1010.56
2017-09-06T00:13:07.503Z,1010.56
2017-09-06T00:14:16.805Z,1010.54
2017-09-06T00:15:25.462Z,1010.55
2017-09-06T00:16:34.423Z,1010.54
2017-09-06T00:17:43.400Z,1010.55
2017-09-06T00:18:52.364Z,1010.53
2017-09-06T00:20:01.024Z,1010.55
2017-09-06T00:21:09.690Z,1010.52
2017-09-06T00:22:18.956Z,1010.52
2017-09-06T00:23:27.608Z,1010.52
2017-09-06T00:24:36.619Z,1010.5
2017-09-06T00:25:45.595Z,1010.51
2017-09-06T00:26:54.576Z,1010.51
2017-09-06T00:28:04.484Z,1010.49
2017-09-06T00:29:13.145Z,1010.5
2017-09-06T00:30:21.811Z,1010.5
2017-09-06T00:31:30.777Z,1010.51
2017-09-06T00:32:39.746Z,1010.48
2017-09-06T00:33:48.714Z,1010.5
2017-09-06T00:34:57.684Z,1010.43
2017-09-06T00:36:06.649Z,1010.49
2017-09-06T00:37:15.949Z,1010.49
2017-09-06T00:38:24.913Z,1010.48
2017-09-06T00:39:33.583Z,1010.46
2017-09-06T00:40:43.213Z,1010.46
2017-09-06T00:41:52.175Z,1010.46
2017-09-06T00:43:01.779Z,1010.48
2017-09-06T00:44:10.767Z,1010.49
2017-09-06T00:45:19.731Z,1010.48
2017-09-06T00:46:29.009Z,1010.44
2017-09-06T00:47:38.623Z,1010.42
2017-09-06T00:48:47.928Z,1010.4
2017-09-06T00:49:56.894Z,1010.45
2017-09-06T00:51:06.190Z,1010.44
2017-09-06T00:52:15.173Z,1010.44
2017-09-06T00:53:24.514Z,1010.45
2017-09-06T00:54:33.490Z,1010.42
2017-09-06T00:55:42.776Z,1010.42
2017-09-06T00:56:51.750Z,1010.43
2017-09-06T00:58:00.401Z,1010.41
2017-09-06T00:59:09.697Z,1010.36
2017-09-06T01:00:18.666Z,1010.36
2017-09-06T01:01:28.263Z,1010.36
2017-09-06T01:02:37.558Z,1010.33
2017-09-06T01:03:46.209Z,1010.31
2017-09-06T01:04:55.163Z,1010.32
2017-09-06T01:06:04.182Z,1010.29
2017-09-06T01:07:13.159Z,1010.3
2017-09-06T01:08:22.430Z,1010.28
2017-09-06T01:09:31.402Z,1010.26
2017-09-06T01:10:40.682Z,1010.26
2017-09-06T01:11:49.679Z,1010.24
2017-09-06T01:12:58.961Z,1010.25
2017-09-06T01:14:08.253Z,1010.25
2017-09-06T01:15:17.225Z,1010.24
2017-09-06T01:16:25.895Z,1010.23
2017-09-06T01:17:34.547Z,1010.2
2017-09-06T01:18:43.847Z,1010.17
2017-09-06T01:19:53.134Z,1010.15
2017-09-06T01:21:02.427Z,1010.17
2017-09-06T01:22:11.740Z,1010.15
2017-09-06T01:23:21.340Z,1010.13
2017-09-06T01:24:30.630Z,1010.14
2017-09-06T01:25:39.607Z,1010.16
2017-09-06T01:26:48.882Z,1010.11
2017-09-06T01:27:57.848Z,1010.12
2017-09-06T01:29:07.759Z,1010.1
2017-09-06T01:30:16.732Z,1010.13
2017-09-06T01:31:25.382Z,1010.15
2017-09-06T01:32:34.343Z,1010.11
2017-09-06T01:33:43.304Z,1010.15
2017-09-06T01:34:52.276Z,1010.09
2017-09-06T01:36:01.571Z,1010.13
2017-09-06T01:37:10.227Z,1010.08
2017-09-06T01:38:18.899Z,1010.07
2017-09-06T01:39:27.582Z,1010.09
2017-09-06T01:40:36.872Z,1010.1
2017-09-06T01:41:45.599Z,1010.05
2017-09-06T01:42:54.561Z,1010.05
2017-09-06T01:44:03.550Z,1010.04
2017-09-06T01:45:12.863Z,1010.05
2017-09-06T01:46:22.149Z,1010.05
2017-09-06T01:47:31.108Z,1010.04
2017-09-06T01:48:40.392Z,1010.01
2017-09-06T01:49:49.676Z,1010.06
2017-09-06T01:50:58.640Z,1009.99
2017-09-06T01:52:07.603Z,1009.95
2017-09-06T01:53:16.260Z,1009.97
2017-09-06T01:54:25.560Z,1009.96
2017-09-06T01:55:35.160Z,1009.94
2017-09-06T01:56:44.443Z,1009.94
2017-09-06T01:57:53.414Z,1009.9
2017-09-06T01:59:02.071Z,1009.95
2017-09-06T02:00:11.038Z,1009.93
2017-09-06T02:01:20.325Z,1009.92
2017-09-06T02:02:28.977Z,1009.9
2017-09-06T02:03:37.640Z,1009.92
2017-09-06T02:04:46.297Z,1009.91
2017-09-06T02:05:55.905Z,1009.87
2017-09-06T02:07:04.874Z,1009.87
2017-09-06T02:08:13.863Z,1009.86
2017-09-06T02:09:22.519Z,1009.85
2017-09-06T02:10:31.512Z,1009.86
2017-09-06T02:11:40.488Z,1009.83
2017-09-06T02:12:49.454Z,1009.84
2017-09-06T02:13:58.109Z,1009.82
2017-09-06T02:15:07.707Z,1009.8
2017-09-06T02:16:16.990Z,1009.8
2017-09-06T02:17:25.957Z,1009.77
2017-09-06T02:18:34.596Z,1009.8
2017-09-06T02:19:43.583Z,1009.78
2017-09-06T02:20:52.558Z,1009.8
2017-09-06T02:22:01.843Z,1009.82
2017-09-06T02:23:10.814Z,1009.8
2017-09-06T02:24:20.416Z,1009.82
2017-09-06T02:25:29.697Z,1009.8
2017-09-06T02:26:38.666Z,1009.77
2017-09-06T02:27:47.965Z,1009.71
2017-09-06T02:28:57.575Z,1009.68
2017-09-06T02:30:06.229Z,1009.7
2017-09-06T02:31:14.885Z,1009.6
2017-09-06T02:32:23.544Z,1009.59
2017-09-06T02:33:32.193Z,1009.6
2017-09-06T02:34:41.809Z,1009.54
2017-09-06T02:35:50.960Z,1009.61
2017-09-06T02:36:59.623Z,1009.56
2017-09-06T02:38:08.900Z,1009.52
2017-09-06T02:39:17.869Z,1009.52
2017-09-06T02:40:26.832Z,1009.5
2017-09-06T02:41:36.460Z,1009.48
2017-09-06T02:42:45.444Z,1009.46
2017-09-06T02:43:54.417Z,1009.46
2017-09-06T02:45:03.709Z,1009.47
2017-09-06T02:46:13.662Z,1009.45
2017-09-06T02:47:22.628Z,1009.4
2017-09-06T02:48:31.301Z,1009.37
2017-09-06T02:49:40.587Z,1009.39
2017-09-06T02:50:49.576Z,1009.36
2017-09-06T02:51:58.887Z,1009.39
2017-09-06T02:53:07.855Z,1009.33
2017-09-06T02:54:16.816Z,1009.32
2017-09-06T02:55:25.793Z,1009.36
2017-09-06T02:56:35.075Z,1009.34
2017-09-06T02:57:44.049Z,1009.31
2017-09-06T02:58:53.349Z,1009.34
2017-09-06T03:00:02.634Z,1009.39
2017-09-06T03:01:11.596Z,1009.36
2017-09-06T03:02:20.555Z,1009.37
2017-09-06T03:03:29.213Z,1009.38
2017-09-06T03:04:38.522Z,1009.38
2017-09-06T03:05:48.138Z,1009.34
2017-09-06T03:06:57.114Z,1009.4
2017-09-06T03:08:06.160Z,1009.36
2017-09-06T03:09:14.809Z,1009.38
2017-09-06T03:10:23.459Z,1009.35
2017-09-06T03:11:33.378Z,1009.3
2017-09-06T03:12:42.355Z,1009.28
2017-09-06T03:13:51.645Z,1009.28
2017-09-06T03:15:00.624Z,1009.26
2017-09-06T03:16:09.915Z,1009.22
2017-09-06T03:17:19.513Z,1009.2
2017-09-06T03:18:28.790Z,1009.18
2017-09-06T03:19:38.387Z,1009.15
2017-09-06T03:20:47.992Z,1009.14
2017-09-06T03:21:57.270Z,1009.14
2017-09-06T03:23:06.246Z,1009.14
2017-09-06T03:24:15.519Z,1009.16
2017-09-06T03:25:25.117Z,1009.18
2017-09-06T03:26:34.073Z,1009.19
2017-09-06T03:27:43.193Z,1009.19
2017-09-06T03:28:52.162Z,1009.21
2017-09-06T03:30:01.196Z,1009.16
2017-09-06T03:31:10.813Z,1009.14
2017-09-06T03:32:19.783Z,1009.16
2017-09-06T03:33:28.751Z,1009.15
2017-09-06T03:34:37.722Z,1009.14
2017-09-06T03:35:46.375Z,1009.08
2017-09-06T03:36:55.977Z,1009.05
2017-09-06T03:38:04.944Z,1009.02
2017-09-06T03:39:13.764Z,1009.04
2017-09-06T03:40:23.364Z,1009.05
2017-09-06T03:41:32.642Z,1009.02
2017-09-06T03:42:41.924Z,1009
2017-09-06T03:43:51.200Z,1008.99
2017-09-06T03:45:00.793Z,1008.97
2017-09-06T03:46:10.702Z,1009.02
2017-09-06T03:47:20.294Z,1008.98
2017-09-06T03:48:28.948Z,1009.04
2017-09-06T03:49:37.914Z,1008.99
2017-09-06T03:50:46.566Z,1008.99
2017-09-06T03:51:55.535Z,1009.05
2017-09-06T03:53:04.868Z,1009.08
2017-09-06T03:54:13.836Z,1009.1
2017-09-06T03:55:22.490Z,1009.18
2017-09-06T03:56:31.456Z,1009.23
2017-09-06T03:57:40.420Z,1009.25
2017-09-06T03:58:49.088Z,1009.3
2017-09-06T03:59:58.076Z,1009.44
2017-09-06T04:01:07.355Z,1009.43
2017-09-06T04:02:16.009Z,1009.36
2017-09-06T04:03:25.938Z,1009.29
2017-09-06T04:04:34.597Z,1009.35
2017-09-06T04:05:43.555Z,1009.32
2017-09-06T04:06:53.162Z,1009.37
2017-09-06T04:08:01.843Z,1009.37
2017-09-06T04:09:11.477Z,1009.34
2017-09-06T04:10:20.137Z,1009.35
2017-09-06T04:11:29.414Z,1009.35
2017-09-06T04:12:38.708Z,1009.27
2017-09-06T04:13:47.682Z,1009.29
2017-09-06T04:14:56.967Z,1009.24
2017-09-06T04:16:05.940Z,1009.27
2017-09-06T04:17:15.526Z,1009.26
2017-09-06T04:18:24.500Z,1009.28
2017-09-06T04:19:33.163Z,1009.26
2017-09-06T04:20:42.450Z,1009.28
2017-09-06T04:21:51.774Z,1009.25
2017-09-06T04:23:01.052Z,1009.28
2017-09-06T04:24:10.649Z,1009.29
2017-09-06T04:25:19.619Z,1009.24
2017-09-06T04:26:28.919Z,1009.18
2017-09-06T04:27:38.509Z,1009.17
2017-09-06T04:28:47.480Z,1009.18
2017-09-06T04:29:56.436Z,1009.21
2017-09-06T04:31:05.093Z,1009.21
2017-09-06T04:32:14.375Z,1009.18
2017-09-06T04:33:23.015Z,1009.19
2017-09-06T04:34:31.987Z,1009.2
2017-09-06T04:35:40.944Z,1009.21
2017-09-06T04:36:49.910Z,1009.22
2017-09-06T04:37:59.195Z,1009.18
2017-09-06T04:39:08.483Z,1009.18
2017-09-06T04:40:17.455Z,1009.24
2017-09-06T04:41:26.734Z,1009.2
2017-09-06T04:42:35.686Z,1009.22
2017-09-06T04:43:44.659Z,1009.22
2017-09-06T04:44:53.638Z,1009.18
2017-09-06T04:46:03.458Z,1009.16
2017-09-06T04:47:12.727Z,1009.2
2017-09-06T04:48:22.016Z,1009.19
2017-09-06T04:49:31.311Z,1009.19
2017-09-06T04:50:40.271Z,1009.19
2017-09-06T04:51:49.241Z,1009.26
2017-09-06T04:52:58.537Z,1009.27
2017-09-06T04:54:07.498Z,1009.23
2017-09-06T04:55:16.458Z,1009.27
2017-09-06T04:56:26.060Z,1009.28
2017-09-06T04:57:34.706Z,1009.3
2017-09-06T04:58:43.663Z,1009.29
2017-09-06T04:59:52.313Z,1009.31
2017-09-06T05:01:01.318Z,1009.25
2017-09-06T05:02:10.574Z,1009.28
2017-09-06T05:03:19.225Z,1009.28
2017-09-06T05:04:28.511Z,1009.33
2017-09-06T05:05:37.160Z,1009.32
2017-09-06T05:06:46.147Z,1009.33
2017-09-06T05:07:54.803Z,1009.35
2017-09-06T05:09:03.779Z,1009.33
2017-09-06T05:10:13.064Z,1009.33
2017-09-06T05:11:22.040Z,1009.36
2017-09-06T05:12:30.693Z,1009.32
2017-09-06T05:13:40.013Z,1009.28
2017-09-06T05:14:48.986Z,1009.27
2017-09-06T05:15:57.969Z,1009.28
2017-09-06T05:17:07.374Z,1009.35
2017-09-06T05:18:16.648Z,1009.36
2017-09-06T05:19:25.329Z,1009.35
2017-09-06T05:20:34.608Z,1009.4
2017-09-06T05:21:43.892Z,1009.4
2017-09-06T05:22:52.865Z,1009.4
2017-09-06T05:24:02.142Z,1009.38
2017-09-06T05:25:11.735Z,1009.38
2017-09-06T05:26:20.713Z,1009.4
2017-09-06T05:27:29.688Z,1009.36
2017-09-06T05:28:38.663Z,1009.37
2017-09-06T05:29:47.328Z,1009.4
2017-09-06T05:30:56.617Z,1009.38
2017-09-06T05:32:06.599Z,1009.43
2017-09-06T05:33:15.262Z,1009.42
2017-09-06T05:34:24.239Z,1009.44
2017-09-06T05:35:33.216Z,1009.47
2017-09-06T05:36:42.197Z,1009.46
2017-09-06T05:37:51.186Z,1009.45
2017-09-06T05:39:00.191Z,1009.4
2017-09-06T05:40:09.835Z,1009.46
2017-09-06T05:41:18.821Z,1009.44
2017-09-06T05:42:28.105Z,1009.46
2017-09-06T05:43:37.124Z,1009.47
2017-09-06T05:44:46.090Z,1009.5
2017-09-06T05:45:55.370Z,1009.49
2017-09-06T05:47:04.705Z,1009.54
2017-09-06T05:48:13.683Z,1009.53
2017-09-06T05:49:22.677Z,1009.52
2017-09-06T05:50:31.342Z,1009.55
2017-09-06T05:51:40.663Z,1009.53
2017-09-06T05:52:49.438Z,1009.59
2017-09-06T05:53:58.742Z,1009.63
2017-09-06T05:55:08.056Z,1009.64
2017-09-06T05:56:17.046Z,1009.64
2017-09-06T05:57:26.036Z,1009.62
2017-09-06T05:58:35.028Z,1009.61
2017-09-06T05:59:44.357Z,1009.64
2017-09-06T06:00:53.342Z,1009.67
2017-09-06T06:02:02.963Z,1009.62
2017-09-06T06:03:11.629Z,1009.67
2017-09-06T06:04:20.613Z,1009.69
2017-09-06T06:05:29.607Z,1009.68
2017-09-06T06:06:38.903Z,1009.67
2017-09-06T06:07:48.504Z,1009.64
2017-09-06T06:08:57.801Z,1009.69
2017-09-06T06:10:06.472Z,1009.66
2017-09-06T06:11:15.458Z,1009.68
2017-09-06T06:12:24.738Z,1009.67
2017-09-06T06:13:34.043Z,1009.8
2017-09-06T06:14:43.164Z,1009.78
2017-09-06T06:15:52.567Z,1009.78
2017-09-06T06:17:01.959Z,1009.8
2017-09-06T06:18:10.918Z,1009.82
2017-09-06T06:19:19.874Z,1009.85
2017-09-06T06:20:29.487Z,1009.82
2017-09-06T06:21:38.766Z,1009.82
2017-09-06T06:22:47.742Z,1009.8
2017-09-06T06:23:57.035Z,1009.81
2017-09-06T06:25:05.701Z,1009.82
2017-09-06T06:26:15.306Z,1009.81
2017-09-06T06:27:24.595Z,1009.86
2017-09-06T06:28:33.578Z,1009.8
2017-09-06T06:29:42.889Z,1009.83
2017-09-06T06:30:51.537Z,1009.89
2017-09-06T06:32:00.503Z,1009.85
2017-09-06T06:33:09.199Z,1009.85
2017-09-06T06:34:18.169Z,1009.87
2017-09-06T06:35:26.811Z,1009.92
2017-09-06T06:36:35.464Z,1009.92
2017-09-06T06:37:44.110Z,1009.91
2017-09-06T06:38:54.035Z,1009.94
2017-09-06T06:40:02.674Z,1009.87
2017-09-06T06:41:12.272Z,1009.89
2017-09-06T06:42:21.240Z,1009.93
2017-09-06T06:43:30.212Z,1009.91
2017-09-06T06:44:39.175Z,1009.84
2017-09-06T06:45:48.439Z,1009.86
2017-09-06T06:46:58.361Z,1009.86
2017-09-06T06:48:07.335Z,1009.87
2017-09-06T06:49:15.979Z,1009.86
2017-09-06T06:50:25.584Z,1009.85
2017-09-06T06:51:34.887Z,1009.95
2017-09-06T06:52:44.222Z,1009.85
2017-09-06T06:53:52.872Z,1009.85
2017-09-06T06:55:01.850Z,1009.9
2017-09-06T06:56:10.508Z,1009.93
2017-09-06T06:57:19.477Z,1009.91
2017-09-06T06:58:28.432Z,1009.89
2017-09-06T06:59:37.110Z,1009.85
2017-09-06T07:00:46.076Z,1009.92
2017-09-06T07:01:54.731Z,1009.94
2017-09-06T07:03:03.384Z,1009.95
2017-09-06T07:04:12.671Z,1009.99
2017-09-06T07:05:21.334Z,1009.99
2017-09-06T07:06:30.624Z,1010.02
2017-09-06T07:07:39.921Z,1010.05
2017-09-06T07:08:48.905Z,1010.02
2017-09-06T07:09:57.886Z,1010.03
2017-09-06T07:11:07.160Z,1010.01
2017-09-06T07:12:16.439Z,1010.08
2017-09-06T07:13:25.450Z,1010.06
2017-09-06T07:14:35.040Z,1010.05
2017-09-06T07:15:44.054Z,1010.13
2017-09-06T07:16:53.014Z,1010.21
2017-09-06T07:18:02.295Z,1010.27
2017-09-06T07:19:10.948Z,1010.48
2017-09-06T07:20:20.224Z,1010.36
2017-09-06T07:21:28.890Z,1010.45
2017-09-06T07:22:37.864Z,1010.53
2017-09-06T07:23:46.518Z,1010.42
2017-09-06T07:24:55.814Z,1010.5
2017-09-06T07:26:04.770Z,1010.52
2017-09-06T07:27:13.742Z,1010.5
2017-09-06T07:28:22.730Z,1010.49
2017-09-06T07:29:32.075Z,1010.51
2017-09-06T07:30:40.737Z,1010.53
2017-09-06T07:31:50.032Z,1010.53
2017-09-06T07:32:59.002Z,1010.55
2017-09-06T07:34:08.285Z,1010.56
2017-09-06T07:35:17.558Z,1010.65
2017-09-06T07:36:26.537Z,1010.6
2017-09-06T07:37:35.957Z,1010.66
2017-09-06T07:38:44.920Z,1010.76
2017-09-06T07:39:53.902Z,1010.74
2017-09-06T07:41:02.869Z,1010.71
2017-09-06T07:42:12.219Z,1010.74
2017-09-06T07:43:20.944Z,1010.8
2017-09-06T07:44:29.599Z,1010.82
2017-09-06T07:45:38.880Z,1010.85
2017-09-06T07:46:47.846Z,1010.87
2017-09-06T07:47:57.458Z,1010.95
2017-09-06T07:49:07.069Z,1010.95
2017-09-06T07:50:16.043Z,1010.99
2017-09-06T07:51:25.011Z,1011.05
2017-09-06T07:52:33.996Z,1011.12
2017-09-06T07:53:42.976Z,1011.12
2017-09-06T07:54:51.952Z,1011.15
2017-09-06T07:56:01.550Z,1011.06
2017-09-06T07:57:10.530Z,1011.15
2017-09-06T07:58:19.501Z,1011.26
2017-09-06T07:59:28.494Z,1011.3
2017-09-06T08:00:38.416Z,1011.39
2017-09-06T08:01:47.388Z,1011.29
2017-09-06T08:02:56.365Z,1011.48
2017-09-06T08:04:05.638Z,1011.42
2017-09-06T08:05:14.606Z,1011.44
2017-09-06T08:06:23.581Z,1011.31
2017-09-06T08:07:32.881Z,1011.31
2017-09-06T08:08:41.536Z,1011.37
2017-09-06T08:09:51.194Z,1011.42
2017-09-06T08:11:00.479Z,1011.42
2017-09-06T08:12:09.761Z,1011.34
2017-09-06T08:13:18.725Z,1011.37
2017-09-06T08:14:28.006Z,1011.41
2017-09-06T08:15:36.656Z,1011.54
2017-09-06T08:16:45.922Z,1011.38
2017-09-06T08:17:54.964Z,1011.43
2017-09-06T08:19:03.930Z,1011.44
2017-09-06T08:20:12.912Z,1011.45
2017-09-06T08:21:21.884Z,1011.5
2017-09-06T08:22:31.486Z,1011.51
2017-09-06T08:23:40.771Z,1011.52
2017-09-06T08:24:50.373Z,1011.47
2017-09-06T08:25:59.668Z,1011.54
2017-09-06T08:27:08.654Z,1011.66
2017-09-06T08:28:17.328Z,1011.69
2017-09-06T08:29:26.616Z,1011.67
2017-09-06T08:30:35.900Z,1011.65
2017-09-06T08:31:45.179Z,1011.69
2017-09-06T08:32:54.156Z,1011.67
2017-09-06T08:34:03.130Z,1011.69
2017-09-06T08:35:12.454Z,1011.75
2017-09-06T08:36:21.426Z,1011.76
2017-09-06T08:37:30.082Z,1011.78
2017-09-06T08:38:38.738Z,1011.76
2017-09-06T08:39:47.402Z,1011.85
2017-09-06T08:40:56.689Z,1011.86
2017-09-06T08:42:05.343Z,1011.76
2017-09-06T08:43:14.350Z,1011.84
2017-09-06T08:44:23.012Z,1011.85
2017-09-06T08:45:32.638Z,1011.9
2017-09-06T08:46:41.615Z,1011.89
2017-09-06T08:47:50.585Z,1011.92
2017-09-06T08:48:59.578Z,1011.86
2017-09-06T08:50:08.541Z,1012.03
2017-09-06T08:51:17.512Z,1011.92
2017-09-06T08:52:26.500Z,1011.91
2017-09-06T08:53:35.211Z,1011.99
2017-09-06T08:54:43.871Z,1011.97
2017-09-06T08:55:52.839Z,1012.01
2017-09-06T08:57:02.466Z,1012.08
2017-09-06T08:58:11.442Z,1012.18
2017-09-06T08:59:20.446Z,1012.08
2017-09-06T09:00:29.123Z,1012.14
2017-09-06T09:01:37.798Z,1012.11
2017-09-06T09:02:47.081Z,1012.12
2017-09-06T09:03:56.072Z,1012.08
2017-09-06T09:05:05.061Z,1012.16
2017-09-06T09:06:14.026Z,1012.19
2017-09-06T09:07:23.021Z,1012.23
2017-09-06T09:08:32.941Z,1012.22
2017-09-06T09:09:42.551Z,1012.22
2017-09-06T09:10:51.886Z,1012.22
2017-09-06T09:12:00.531Z,1012.2
2017-09-06T09:13:10.144Z,1012.19
2017-09-06T09:14:19.736Z,1012.24
2017-09-06T09:15:28.442Z,1012.21
2017-09-06T09:16:37.409Z,1012.2
2017-09-06T09:17:46.387Z,1012.19
2017-09-06T09:18:55.046Z,1012.22
2017-09-06T09:20:04.013Z,1012.22
2017-09-06T09:21:13.338Z,1012.24
2017-09-06T09:22:22.303Z,1012.2
2017-09-06T09:23:31.591Z,1012.2
2017-09-06T09:24:40.570Z,1012.22
2017-09-06T09:25:49.572Z,1012.22
2017-09-06T09:26:58.242Z,1012.21
2017-09-06T09:28:07.854Z,1012.27
2017-09-06T09:29:16.510Z,1012.23
2017-09-06T09:30:25.477Z,1012.24
2017-09-06T09:31:35.073Z,1012.26
2017-09-06T09:32:44.055Z,1012.21
2017-09-06T09:33:53.035Z,1012.25
2017-09-06T09:35:02.641Z,1012.28
2017-09-06T09:36:11.933Z,1012.24
2017-09-06T09:37:20.918Z,1012.21
2017-09-06T09:38:30.540Z,1012.21
2017-09-06T09:39:39.883Z,1012.23
2017-09-06T09:40:49.163Z,1012.24
2017-09-06T09:41:58.145Z,1012.24
2017-09-06T09:43:06.811Z,1012.25
2017-09-06T09:44:15.789Z,1012.26
2017-09-06T09:45:25.094Z,1012.28
2017-09-06T09:46:33.755Z,1012.24
2017-09-06T09:47:43.045Z,1012.29
2017-09-06T09:48:52.026Z,1012.27
2017-09-06T09:50:01.011Z,1012.37
2017-09-06T09:51:09.999Z,1012.33
2017-09-06T09:52:18.664Z,1012.33
2017-09-06T09:53:27.970Z,1012.39
2017-09-06T09:54:37.258Z,1012.42
2017-09-06T09:55:45.906Z,1012.43
2017-09-06T09:56:54.602Z,1012.39
2017-09-06T09:58:04.207Z,1012.4
2017-09-06T10:00:21.567Z,1012.37
2017-09-06T10:01:31.182Z,1012.41
2017-09-06T10:02:40.153Z,1012.38
2017-09-06T10:03:49.441Z,1012.37
2017-09-06T10:04:58.420Z,1012.45
2017-09-06T10:06:07.422Z,1012.37
2017-09-06T10:07:16.707Z,1012.36
2017-09-06T10:08:26.669Z,1012.37
2017-09-06T10:09:35.635Z,1012.31
2017-09-06T10:10:44.913Z,1012.38
2017-09-06T10:11:53.879Z,1012.35
2017-09-06T10:13:03.181Z,1012.31
2017-09-06T10:14:12.471Z,1012.33
2017-09-06T10:15:22.083Z,1012.31
2017-09-06T10:16:31.060Z,1012.26
2017-09-06T10:17:40.363Z,1012.27
2017-09-06T10:18:49.028Z,1012.32
2017-09-06T10:19:58.007Z,1012.29
2017-09-06T10:21:07.051Z,1012.3
2017-09-06T10:22:16.665Z,1012.36
2017-09-06T10:23:25.662Z,1012.26
2017-09-06T10:24:34.639Z,1012.32
2017-09-06T10:25:43.641Z,1012.27
2017-09-06T10:26:52.573Z,1012.31
2017-09-06T10:28:01.542Z,1012.29
2017-09-06T10:29:10.509Z,1012.23
2017-09-06T10:30:19.480Z,1012.25
2017-09-06T10:31:28.477Z,1012.12
2017-09-06T10:32:37.765Z,1012.19
2017-09-06T10:33:47.683Z,1012.13
2017-09-06T10:34:57.294Z,1012.2
2017-09-06T10:36:06.269Z,1012.24
2017-09-06T10:37:14.919Z,1012.17
2017-09-06T10:38:23.886Z,1012.22
2017-09-06T10:39:33.162Z,1012.23
2017-09-06T10:40:42.460Z,1012.29
2017-09-06T10:41:51.443Z,1012.22
2017-09-06T10:43:00.736Z,1012.3
2017-09-06T10:44:10.028Z,1012.26
2017-09-06T10:45:19.000Z,1012.16
2017-09-06T10:46:28.293Z,1012.21
2017-09-06T10:47:37.293Z,1012.21
2017-09-06T10:48:46.272Z,1012.25
2017-09-06T10:49:55.000Z,1012.25
2017-09-06T10:51:03.674Z,1012.27
2017-09-06T10:52:12.976Z,1012.22
2017-09-06T10:53:21.957Z,1012.17
2017-09-06T10:54:31.553Z,1012.26
2017-09-06T10:55:40.528Z,1012.13
2017-09-06T10:56:49.514Z,1012.14
2017-09-06T10:57:58.810Z,1012.12
2017-09-06T10:59:07.464Z,1012.08
2017-09-06T11:00:16.124Z,1012.14
2017-09-06T11:01:24.785Z,1012.09
2017-09-06T11:02:34.080Z,1012.15
2017-09-06T11:03:42.747Z,1012.17
2017-09-06T11:04:51.719Z,1012.21
2017-09-06T11:06:00.680Z,1012.24
2017-09-06T11:07:09.653Z,1012.21
2017-09-06T11:08:18.626Z,1012.25
2017-09-06T11:09:27.604Z,1012.23
2017-09-06T11:10:36.900Z,1012.27
2017-09-06T11:11:45.869Z,1012.22
2017-09-06T11:12:54.533Z,1012.21
2017-09-06T11:14:03.817Z,1012.25
2017-09-06T11:15:12.799Z,1012.25
2017-09-06T11:16:21.484Z,1012.19
2017-09-06T11:17:30.778Z,1012.19
2017-09-06T11:18:40.086Z,1012.35
2017-09-06T11:19:49.384Z,1012.28
2017-09-06T11:20:58.955Z,1012.28
2017-09-06T11:22:08.237Z,1012.35
2017-09-06T11:23:17.215Z,1012.31
2017-09-06T11:24:26.202Z,1012.32
2017-09-06T11:25:35.501Z,1012.26
2017-09-06T11:26:45.110Z,1012.31
2017-09-06T11:27:53.775Z,1012.33
2017-09-06T11:29:02.471Z,1012.3
2017-09-06T11:30:11.459Z,1012.31
2017-09-06T11:31:21.279Z,1012.35
2017-09-06T11:32:29.949Z,1012.36
2017-09-06T11:33:39.543Z,1012.41
2017-09-06T11:34:48.560Z,1012.35
2017-09-06T11:35:57.846Z,1012.47
2017-09-06T11:37:07.151Z,1012.46
2017-09-06T11:38:16.188Z,1012.5
2017-09-06T11:39:25.161Z,1012.51
2017-09-06T11:40:33.849Z,1012.41
2017-09-06T11:41:42.829Z,1012.33
2017-09-06T11:42:52.145Z,1012.39
2017-09-06T11:44:01.132Z,1012.39
2017-09-06T11:45:09.803Z,1012.33
2017-09-06T11:46:18.463Z,1012.37
2017-09-06T11:47:27.429Z,1012.27
2017-09-06T11:48:36.410Z,1012.32
2017-09-06T11:49:45.388Z,1012.32
2017-09-06T11:50:54.061Z,1012.3
2017-09-06T11:52:02.714Z,1012.32
2017-09-06T11:53:11.992Z,1012.3
2017-09-06T11:54:20.963Z,1012.38
2017-09-06T11:55:29.934Z,1012.28
2017-09-06T11:56:38.613Z,1012.36
2017-09-06T11:57:48.215Z,1012.37
2017-09-06T11:58:57.197Z,1012.36
2017-09-06T12:00:06.183Z,1012.3
2017-09-06T12:01:15.174Z,1012.33
2017-09-06T12:02:23.837Z,1012.41
2017-09-06T12:03:32.835Z,1012.37
2017-09-06T12:04:41.902Z,1012.31
2017-09-06T12:05:51.195Z,1012.36
2017-09-06T12:07:00.167Z,1012.31
2017-09-06T12:08:08.822Z,1012.29
2017-09-06T12:09:18.118Z,1012.28
2017-09-06T12:10:27.097Z,1012.31
2017-09-06T12:11:36.384Z,1012.3
2017-09-06T12:12:45.990Z,1012.34
2017-09-06T12:13:55.300Z,1012.33
2017-09-06T12:15:04.588Z,1012.36
2017-09-06T12:16:13.260Z,1012.35
2017-09-06T12:17:22.239Z,1012.33
2017-09-06T12:18:31.523Z,1012.34
2017-09-06T12:19:40.508Z,1012.45
2017-09-06T12:20:49.164Z,1012.34
2017-09-06T12:21:58.140Z,1012.39
2017-09-06T12:23:07.435Z,1012.41
2017-09-06T12:24:16.118Z,1012.41
2017-09-06T12:25:25.452Z,1012.48
2017-09-06T12:26:34.106Z,1012.39
2017-09-06T12:27:43.723Z,1012.41
2017-09-06T12:28:52.379Z,1012.43
2017-09-06T12:30:02.003Z,1012.44
2017-09-06T12:31:11.349Z,1012.42
2017-09-06T12:32:20.327Z,1012.45
2017-09-06T12:33:29.294Z,1012.41
2017-09-06T12:34:38.572Z,1012.39
2017-09-06T12:35:47.228Z,1012.43
2017-09-06T12:36:55.884Z,1012.38
2017-09-06T12:38:04.847Z,1012.38
2017-09-06T12:39:13.819Z,1012.35
2017-09-06T12:40:22.481Z,1012.39
2017-09-06T12:41:31.140Z,1012.36
2017-09-06T12:42:40.427Z,1012.37
2017-09-06T12:43:49.098Z,1012.36
2017-09-06T12:44:58.381Z,1012.31
2017-09-06T12:46:07.709Z,1012.32
2017-09-06T12:47:17.323Z,1012.34
2017-09-06T12:48:26.616Z,1012.32
2017-09-06T12:49:35.580Z,1012.33
2017-09-06T12:50:44.565Z,1012.4
2017-09-06T12:51:54.071Z,1012.29
2017-09-06T12:53:03.673Z,1012.32
2017-09-06T12:54:13.281Z,1012.36
2017-09-06T12:55:21.949Z,1012.3
2017-09-06T12:56:30.917Z,1012.33
2017-09-06T12:57:40.212Z,1012.36
2017-09-06T12:58:50.134Z,1012.36
2017-09-06T12:59:59.419Z,1012.32
2017-09-06T13:01:09.065Z,1012.31
2017-09-06T13:02:18.048Z,1012.33
2017-09-06T13:03:27.044Z,1012.34
2017-09-06T13:04:36.005Z,1012.35
2017-09-06T13:05:44.978Z,1012.4
2017-09-06T13:06:54.902Z,1012.43
2017-09-06T13:08:04.186Z,1012.37
2017-09-06T13:09:12.846Z,1012.35
2017-09-06T13:10:21.823Z,1012.39
2017-09-06T13:11:30.495Z,1012.46
2017-09-06T13:12:39.480Z,1012.36
2017-09-06T13:13:48.121Z,1012.36
2017-09-06T13:14:57.088Z,1012.33
2017-09-06T13:16:05.890Z,1012.48
2017-09-06T13:17:14.858Z,1012.43
2017-09-06T13:18:23.522Z,1012.45
2017-09-06T13:19:32.270Z,1012.46
2017-09-06T13:20:41.231Z,1012.42
2017-09-06T13:21:50.203Z,1012.38
2017-09-06T13:22:59.175Z,1012.42
2017-09-06T13:24:07.832Z,1012.42
2017-09-06T13:25:17.425Z,1012.44
2017-09-06T13:26:26.730Z,1012.42
2017-09-06T13:27:36.008Z,1012.43
2017-09-06T13:28:45.656Z,1012.51
2017-09-06T13:29:54.947Z,1012.56
2017-09-06T13:31:03.924Z,1012.49
2017-09-06T13:32:13.525Z,1012.37
2017-09-06T13:33:22.839Z,1012.51
2017-09-06T13:34:32.148Z,1012.51
2017-09-06T13:35:41.757Z,1012.46
2017-09-06T13:36:50.419Z,1012.5
2017-09-06T13:37:59.413Z,1012.61
2017-09-06T13:39:09.015Z,1012.51
2017-09-06T13:40:18.002Z,1012.52
2017-09-06T13:41:27.623Z,1012.52
2017-09-06T13:42:36.612Z,1012.46
2017-09-06T13:43:45.246Z,1012.45
2017-09-06T13:44:54.229Z,1012.6
2017-09-06T13:46:03.850Z,1012.5
2017-09-06T13:47:13.131Z,1012.46
2017-09-06T13:48:22.430Z,1012.45
2017-09-06T13:49:31.408Z,1012.51
2017-09-06T13:50:40.713Z,1012.5
2017-09-06T13:51:49.710Z,1012.48
2017-09-06T13:52:59.016Z,1012.47
2017-09-06T13:54:07.684Z,1012.47
2017-09-06T13:55:16.982Z,1012.47
2017-09-06T13:56:25.941Z,1012.39
2017-09-06T13:57:35.558Z,1012.39
2017-09-06T13:58:44.538Z,1012.42
2017-09-06T13:59:53.536Z,1012.42